X

Important NEWS



New Hub Active

Miami is our new hub! Old members can request transfer via hr@dlxairways.net

Thank you very much and have nice flight.


Deluxe Airways.

X

Tours



Hello again, we created one nice test tour for all pilots to attend. also this is ment to be testing of our tour system

Available Tours

If you find some issues please inform us.

Thank you very much and have nice flight.


Deluxe Airways.

 METAR AND TAF INFORMATION
ArrayMETAR FOR LLBG
81082960 5 LLBG 180220Z 19004KT 9999 FEW027 SCT032 23/19 Q1011 NOSIG LLBG 2018-10-18T02:20:00Z 32.0 34.88 23.0 19.0 190 4 6.21 29.852362 TRUE VFR METAR 49.0 LLBG 180150Z 17004KT 9999 SCT022 BKN030 23/19 Q1012 NOSIG LLBG 2018-10-18T01:50:00Z 32.0 34.88 23.0 19.0 170 4 6.21 29.88189 TRUE MVFR METAR 49.0 LLBG 180120Z 18005KT 9999 FEW021 BKN035 23/19 Q1012 NOSIG LLBG 2018-10-18T01:20:00Z 32.0 34.88 23.0 19.0 180 5 6.21 29.88189 TRUE VFR METAR 49.0 LLBG 180050Z 17005KT 9999 FEW020 SCT035 23/19 Q1012 NOSIG LLBG 2018-10-18T00:50:00Z 32.0 34.88 23.0 19.0 170 5 6.21 29.88189 TRUE VFR METAR 49.0

 AIRPORT MAP

 RUNWAY INFORMATION
Runway 03 Runway length 9094 ft Runway width 148 ft
Runway elevation 129 ft Runway displaced threshold 0 ft Runway heading 29
Runway 21 Runway length 9094 ft Runway width 148 ft
Runway elevation 134 ft Runway displaced threshold 0 ft Runway heading 209
Runway 08 Runway length 13327 ft Runway width 148 ft
Runway elevation 97 ft Runway displaced threshold 0 ft Runway heading 80
Runway 26 Runway length 13327 ft Runway width 148 ft
Runway elevation 124 ft Runway displaced threshold 1969 ft Runway heading 260
Runway 12 Runway length 10209 ft Runway width 148 ft
Runway elevation 112 ft Runway displaced threshold 0 ft Runway heading 121
Runway 30 Runway length 10209 ft Runway width 148 ft
Runway elevation 130 ft Runway displaced threshold 246 ft Runway heading 301

 AIRPORT FREQUENCIES
Type APP Name Ben Gurion Frequency 120.5 MHZ
Type ATIS Name ATIS Frequency 132.5 MHZ
Type CLD Name CLNC DEL Frequency 119.35 MHZ
Type GND Name GND WEST Frequency 118.05 MHZ
Type GND Name GND EAST Frequency 129.2 MHZ
Type MISC Name VOLMET Frequency 126.8 MHZ
Type TMA Name Ben Gurion Frequency 119.5 MHZ
Type TWR Name Ben Gurion Frequency 132.1 MHZ
Type TWR Name Ben Gurion Frequency 134.6 MHZ

 AIRPORT NEAR NAVIGATION AIDS
Type VOR-DME Name Ben Gurion Frequency 113500 KHZ
Type NDB Name Tel Aviv Frequency 331 KHZ



Powered by Virtual Airlines Manager [v2.6.2]

Template code change by DeluxeAir